Airfield :
LOGIN :

Register | Disclaimer

   EN    FR    IT 

 










Legend :    VFR   Marginal VFR   IFR   Intensive IFR   Very Intensive IFR
Visi :
Ceiling :
>= 8 km
>= 3000ft
5 to 8 km
1000 to 3000 ft
1500m to 5 km
500 to 1000 ft
800 to 1500m
200 to 500 ft
< 800m
< 200 ft
Symbols :   Thunderstorms  Fog  Heavy snow  Heavy precipitations  Wind > 20 kt
SIGMETs :     Misc.  Thunderstorms  Icing  Turbulence  Mountain Waves  Volcanic Ashes







- Airport Elevation : 502 ft
- IATA code : ORK


EICK - Cork

CURRENT METAR :
  • 170730Z 24006KT 9999 FEW015 05/05 Q1017 NOSIG

EXPIRED METARs :
  • 170700Z VRB03KT 9999 FEW015 06/06 Q1016 NOSIG
  • 170630Z 25007KT 9999 FEW015 07/07 Q1016 NOSIG
  • 170600Z 24006KT 9999 FEW015 07/07 Q1016 NOSIG
  • 170530Z 23007KT 9999 FEW015 07/06 Q1016 NOSIG
  • 170500Z 23008KT 9999 FEW015 06/06 Q1016 NOSIG

TAF TAF EICK
Valid from the 17 at 06:00 until the 18 at 06:00 UTC


170500Z 1706/1806 24008KT 9999 FEW012 BKN020
BECMG 1713/1716 14005KT
BECMG 1714/1716 VRB03KT
BECMG 1803/1806 BKN010
No reported NOTAMs for that airfield.
1 SIGMET reported for the Shannon FIR (EISN) :
 
Severe mountain waves
EISN SIGMET 04 VALID 170500/170800 EINN
EISN SHANNON FIR SEV MTW FCST N OF N5300 AND E OF W01030 FL050/200 MOV NE AT 25KT WKN=



MET'MAP, your aeronautical weather chart ! - Copyright ORBIFLY December 2007 - Disclaimer

ORBIFLY MET'MAP TEAM :

Programming & Development : Alexandra Zaïnal
Concept & Development : Baudouin d'Aumeries
Co-Development & Prog : Marc-Olivier Méhu
Technical & hardware support : Manuel Goepfert

Contact : metmap@orbifly.com




SOURCES & CREDITS :

   NOAA